sensor_id;sensor_type;location;lat;lon;timestamp;P1;durP1;ratioP1;P2;durP2;ratioP2
66523;SDS011;53350;52.210;5.160;2024-03-07T00:02:11;39.25;;;24.58;;
66523;SDS011;53350;52.210;5.160;2024-03-07T00:04:37;45.22;;;26.73;;
66523;SDS011;53350;52.210;5.160;2024-03-07T00:07:03;44.50;;;26.15;;
66523;SDS011;53350;52.210;5.160;2024-03-07T00:09:31;45.53;;;27.08;;
66523;SDS011;53350;52.210;5.160;2024-03-07T00:11:57;48.13;;;27.38;;
66523;SDS011;53350;52.210;5.160;2024-03-07T00:14:24;46.50;;;25.58;;
66523;SDS011;53350;52.210;5.160;2024-03-07T00:16:52;48.15;;;25.65;;
66523;SDS011;53350;52.210;5.160;2024-03-07T00:19:20;45.85;;;26.25;;
66523;SDS011;53350;52.210;5.160;2024-03-07T00:21:50;41.92;;;25.48;;
66523;SDS011;53350;52.210;5.160;2024-03-07T00:24:17;45.17;;;25.38;;
66523;SDS011;53350;52.210;5.160;2024-03-07T00:26:44;50.05;;;26.40;;
66523;SDS011;53350;52.210;5.160;2024-03-07T00:29:10;52.22;;;27.08;;
66523;SDS011;53350;52.210;5.160;2024-03-07T00:31:37;46.00;;;26.08;;
66523;SDS011;53350;52.210;5.160;2024-03-07T00:34:03;54.38;;;26.67;;
66523;SDS011;53350;52.210;5.160;2024-03-07T00:36:31;46.72;;;27.05;;
66523;SDS011;53350;52.210;5.160;2024-03-07T00:38:58;47.67;;;26.52;;
66523;SDS011;53350;52.210;5.160;2024-03-07T00:41:25;50.65;;;26.90;;
66523;SDS011;53350;52.210;5.160;2024-03-07T00:43:51;48.88;;;26.40;;
66523;SDS011;53350;52.210;5.160;2024-03-07T00:46:18;42.47;;;25.35;;
66523;SDS011;53350;52.210;5.160;2024-03-07T00:48:44;51.92;;;26.85;;
66523;SDS011;53350;52.210;5.160;2024-03-07T00:51:11;50.10;;;26.85;;
66523;SDS011;53350;52.210;5.160;2024-03-07T00:53:39;44.78;;;26.73;;
66523;SDS011;53350;52.210;5.160;2024-03-07T00:56:06;45.55;;;26.58;;
66523;SDS011;53350;52.210;5.160;2024-03-07T00:58:32;46.53;;;26.05;;
66523;SDS011;53350;52.210;5.160;2024-03-07T01:00:59;44.95;;;26.35;;
66523;SDS011;53350;52.210;5.160;2024-03-07T01:03:26;48.90;;;25.70;;
66523;SDS011;53350;52.210;5.160;2024-03-07T01:05:52;48.92;;;26.25;;
66523;SDS011;53350;52.210;5.160;2024-03-07T01:08:19;44.58;;;24.60;;
66523;SDS011;53350;52.210;5.160;2024-03-07T01:10:47;45.15;;;25.60;;
66523;SDS011;53350;52.210;5.160;2024-03-07T01:13:14;45.75;;;26.35;;
66523;SDS011;53350;52.210;5.160;2024-03-07T01:15:44;45.53;;;25.25;;
66523;SDS011;53350;52.210;5.160;2024-03-07T01:18:10;44.45;;;25.77;;
66523;SDS011;53350;52.210;5.160;2024-03-07T01:20:37;47.90;;;27.20;;
66523;SDS011;53350;52.210;5.160;2024-03-07T01:23:04;52.28;;;27.08;;
66523;SDS011;53350;52.210;5.160;2024-03-07T01:25:30;48.67;;;27.20;;
66523;SDS011;53350;52.210;5.160;2024-03-07T01:28:00;51.08;;;29.67;;
66523;SDS011;53350;52.210;5.160;2024-03-07T01:30:29;54.38;;;29.40;;
66523;SDS011;53350;52.210;5.160;2024-03-07T01:32:55;45.70;;;26.95;;
66523;SDS011;53350;52.210;5.160;2024-03-07T01:35:22;53.47;;;27.98;;
66523;SDS011;53350;52.210;5.160;2024-03-07T01:37:48;51.38;;;27.45;;
66523;SDS011;53350;52.210;5.160;2024-03-07T01:40:15;50.92;;;28.25;;
66523;SDS011;53350;52.210;5.160;2024-03-07T01:42:41;54.15;;;29.17;;
66523;SDS011;53350;52.210;5.160;2024-03-07T01:45:10;48.15;;;27.92;;
66523;SDS011;53350;52.210;5.160;2024-03-07T01:47:36;55.78;;;29.00;;
66523;SDS011;53350;52.210;5.160;2024-03-07T01:50:03;53.22;;;28.48;;
66523;SDS011;53350;52.210;5.160;2024-03-07T01:52:31;49.15;;;28.38;;
66523;SDS011;53350;52.210;5.160;2024-03-07T01:54:57;52.40;;;28.90;;
66523;SDS011;53350;52.210;5.160;2024-03-07T01:57:24;53.05;;;28.35;;
66523;SDS011;53350;52.210;5.160;2024-03-07T01:59:51;53.67;;;28.83;;
66523;SDS011;53350;52.210;5.160;2024-03-07T02:02:19;50.38;;;28.55;;
66523;SDS011;53350;52.210;5.160;2024-03-07T02:04:46;49.47;;;28.73;;
66523;SDS011;53350;52.210;5.160;2024-03-07T02:07:12;50.53;;;28.58;;
66523;SDS011;53350;52.210;5.160;2024-03-07T02:09:39;50.15;;;27.35;;
66523;SDS011;53350;52.210;5.160;2024-03-07T02:12:06;55.95;;;30.63;;
66523;SDS011;53350;52.210;5.160;2024-03-07T02:14:34;53.90;;;29.42;;
66523;SDS011;53350;52.210;5.160;2024-03-07T02:17:00;50.47;;;28.92;;
66523;SDS011;53350;52.210;5.160;2024-03-07T02:19:28;57.88;;;28.65;;
66523;SDS011;53350;52.210;5.160;2024-03-07T02:21:58;56.22;;;28.77;;
66523;SDS011;53350;52.210;5.160;2024-03-07T02:24:25;54.92;;;26.88;;
66523;SDS011;53350;52.210;5.160;2024-03-07T02:26:51;52.10;;;27.85;;
66523;SDS011;53350;52.210;5.160;2024-03-07T02:29:18;51.50;;;28.38;;
66523;SDS011;53350;52.210;5.160;2024-03-07T02:31:44;54.25;;;28.73;;
66523;SDS011;53350;52.210;5.160;2024-03-07T02:34:11;53.20;;;28.70;;
66523;SDS011;53350;52.210;5.160;2024-03-07T02:36:37;45.55;;;28.40;;
66523;SDS011;53350;52.210;5.160;2024-03-07T02:39:05;49.85;;;28.83;;
66523;SDS011;53350;52.210;5.160;2024-03-07T02:41:32;43.63;;;23.90;;
66523;SDS011;53350;52.210;5.160;2024-03-07T02:43:59;48.92;;;27.80;;
66523;SDS011;53350;52.210;5.160;2024-03-07T02:46:28;56.42;;;30.63;;
66523;SDS011;53350;52.210;5.160;2024-03-07T02:48:55;51.40;;;30.05;;
66523;SDS011;53350;52.210;5.160;2024-03-07T02:51:21;49.88;;;28.00;;
66523;SDS011;53350;52.210;5.160;2024-03-07T02:53:48;48.58;;;27.17;;
66523;SDS011;53350;52.210;5.160;2024-03-07T02:56:16;53.78;;;29.27;;
66523;SDS011;53350;52.210;5.160;2024-03-07T02:58:42;48.70;;;27.88;;
66523;SDS011;53350;52.210;5.160;2024-03-07T03:01:09;50.60;;;28.77;;
66523;SDS011;53350;52.210;5.160;2024-03-07T03:03:36;48.50;;;27.83;;
66523;SDS011;53350;52.210;5.160;2024-03-07T03:06:02;48.58;;;27.35;;
66523;SDS011;53350;52.210;5.160;2024-03-07T03:08:30;47.30;;;27.02;;
66523;SDS011;53350;52.210;5.160;2024-03-07T03:10:57;52.50;;;28.58;;
66523;SDS011;53350;52.210;5.160;2024-03-07T03:13:25;48.33;;;28.75;;
66523;SDS011;53350;52.210;5.160;2024-03-07T03:15:52;52.63;;;28.50;;
66523;SDS011;53350;52.210;5.160;2024-03-07T03:18:19;47.95;;;27.75;;
66523;SDS011;53350;52.210;5.160;2024-03-07T03:20:45;52.20;;;29.08;;
66523;SDS011;53350;52.210;5.160;2024-03-07T03:23:13;48.40;;;25.98;;
66523;SDS011;53350;52.210;5.160;2024-03-07T03:25:39;50.97;;;28.33;;
66523;SDS011;53350;52.210;5.160;2024-03-07T03:28:06;48.42;;;27.42;;
66523;SDS011;53350;52.210;5.160;2024-03-07T03:33:02;52.50;;;27.80;;
66523;SDS011;53350;52.210;5.160;2024-03-07T03:35:29;46.30;;;27.33;;
66523;SDS011;53350;52.210;5.160;2024-03-07T03:37:56;50.17;;;27.10;;
66523;SDS011;53350;52.210;5.160;2024-03-07T03:40:22;46.95;;;27.65;;
66523;SDS011;53350;52.210;5.160;2024-03-07T03:42:49;46.22;;;26.33;;
66523;SDS011;53350;52.210;5.160;2024-03-07T03:45:15;49.47;;;28.00;;
66523;SDS011;53350;52.210;5.160;2024-03-07T03:47:44;51.97;;;27.38;;
66523;SDS011;53350;52.210;5.160;2024-03-07T03:50:11;51.05;;;27.25;;
66523;SDS011;53350;52.210;5.160;2024-03-07T03:52:38;48.58;;;28.67;;
66523;SDS011;53350;52.210;5.160;2024-03-07T03:55:06;47.55;;;26.85;;
66523;SDS011;53350;52.210;5.160;2024-03-07T03:57:34;48.67;;;26.58;;
66523;SDS011;53350;52.210;5.160;2024-03-07T04:00:01;50.97;;;28.45;;
66523;SDS011;53350;52.210;5.160;2024-03-07T04:02:37;48.53;;;27.92;;
66523;SDS011;53350;52.210;5.160;2024-03-07T04:05:06;49.30;;;27.15;;
66523;SDS011;53350;52.210;5.160;2024-03-07T04:07:34;44.40;;;26.50;;
66523;SDS011;53350;52.210;5.160;2024-03-07T04:10:01;49.85;;;29.38;;
66523;SDS011;53350;52.210;5.160;2024-03-07T04:12:28;51.55;;;27.15;;
66523;SDS011;53350;52.210;5.160;2024-03-07T04:14:55;43.95;;;24.02;;
66523;SDS011;53350;52.210;5.160;2024-03-07T04:17:21;50.00;;;25.70;;
66523;SDS011;53350;52.210;5.160;2024-03-07T04:19:48;52.05;;;28.13;;
66523;SDS011;53350;52.210;5.160;2024-03-07T04:22:17;58.63;;;29.00;;
66523;SDS011;53350;52.210;5.160;2024-03-07T04:24:44;50.90;;;29.52;;
66523;SDS011;53350;52.210;5.160;2024-03-07T04:27:10;49.97;;;26.85;;
66523;SDS011;53350;52.210;5.160;2024-03-07T04:29:37;57.10;;;29.33;;
66523;SDS011;53350;52.210;5.160;2024-03-07T04:32:04;44.28;;;24.35;;
66523;SDS011;53350;52.210;5.160;2024-03-07T04:34:31;51.57;;;26.93;;
66523;SDS011;53350;52.210;5.160;2024-03-07T04:36:58;49.35;;;26.02;;
66523;SDS011;53350;52.210;5.160;2024-03-07T04:39:27;50.22;;;29.25;;
66523;SDS011;53350;52.210;5.160;2024-03-07T04:41:57;54.38;;;29.23;;
66523;SDS011;53350;52.210;5.160;2024-03-07T04:44:25;54.50;;;28.63;;
66523;SDS011;53350;52.210;5.160;2024-03-07T04:46:51;50.17;;;28.38;;
66523;SDS011;53350;52.210;5.160;2024-03-07T04:49:20;51.47;;;28.20;;
66523;SDS011;53350;52.210;5.160;2024-03-07T04:51:47;53.35;;;26.30;;
66523;SDS011;53350;52.210;5.160;2024-03-07T04:54:13;48.58;;;26.52;;
66523;SDS011;53350;52.210;5.160;2024-03-07T04:56:41;47.80;;;28.00;;
66523;SDS011;53350;52.210;5.160;2024-03-07T04:59:08;53.80;;;28.23;;
66523;SDS011;53350;52.210;5.160;2024-03-07T05:04:03;50.75;;;27.20;;
66523;SDS011;53350;52.210;5.160;2024-03-07T05:06:29;44.10;;;25.65;;
66523;SDS011;53350;52.210;5.160;2024-03-07T05:08:58;54.05;;;28.48;;
66523;SDS011;53350;52.210;5.160;2024-03-07T05:11:25;47.78;;;26.83;;
66523;SDS011;53350;52.210;5.160;2024-03-07T05:13:53;51.75;;;28.63;;
66523;SDS011;53350;52.210;5.160;2024-03-07T05:16:19;58.25;;;29.00;;
66523;SDS011;53350;52.210;5.160;2024-03-07T05:18:46;47.85;;;28.35;;
66523;SDS011;53350;52.210;5.160;2024-03-07T05:21:12;46.65;;;25.48;;
66523;SDS011;53350;52.210;5.160;2024-03-07T05:23:56;49.90;;;26.58;;
66523;SDS011;53350;52.210;5.160;2024-03-07T05:26:23;46.88;;;25.23;;
66523;SDS011;53350;52.210;5.160;2024-03-07T05:28:50;55.33;;;28.15;;
66523;SDS011;53350;52.210;5.160;2024-03-07T05:31:18;50.08;;;29.33;;
66523;SDS011;53350;52.210;5.160;2024-03-07T05:33:45;55.67;;;29.63;;
66523;SDS011;53350;52.210;5.160;2024-03-07T05:36:11;48.58;;;28.02;;
66523;SDS011;53350;52.210;5.160;2024-03-07T05:38:40;46.30;;;25.55;;
66523;SDS011;53350;52.210;5.160;2024-03-07T05:41:09;49.90;;;27.17;;
66523;SDS011;53350;52.210;5.160;2024-03-07T05:43:35;49.13;;;27.83;;
66523;SDS011;53350;52.210;5.160;2024-03-07T05:46:02;49.60;;;26.98;;
66523;SDS011;53350;52.210;5.160;2024-03-07T05:48:31;46.10;;;26.77;;
66523;SDS011;53350;52.210;5.160;2024-03-07T05:50:58;59.63;;;29.83;;
66523;SDS011;53350;52.210;5.160;2024-03-07T05:53:25;50.22;;;28.15;;
66523;SDS011;53350;52.210;5.160;2024-03-07T05:55:51;50.72;;;26.67;;
66523;SDS011;53350;52.210;5.160;2024-03-07T05:58:18;46.90;;;24.63;;
66523;SDS011;53350;52.210;5.160;2024-03-07T06:00:45;47.55;;;24.23;;
66523;SDS011;53350;52.210;5.160;2024-03-07T06:03:14;43.35;;;23.58;;
66523;SDS011;53350;52.210;5.160;2024-03-07T06:05:44;45.53;;;22.77;;
66523;SDS011;53350;52.210;5.160;2024-03-07T06:08:13;51.30;;;27.77;;
66523;SDS011;53350;52.210;5.160;2024-03-07T06:10:41;55.40;;;30.42;;
66523;SDS011;53350;52.210;5.160;2024-03-07T06:13:07;53.78;;;30.13;;
66523;SDS011;53350;52.210;5.160;2024-03-07T06:15:34;55.13;;;28.67;;
66523;SDS011;53350;52.210;5.160;2024-03-07T06:18:01;44.25;;;22.67;;
66523;SDS011;53350;52.210;5.160;2024-03-07T06:20:29;51.17;;;28.08;;
66523;SDS011;53350;52.210;5.160;2024-03-07T06:22:57;47.50;;;26.73;;
66523;SDS011;53350;52.210;5.160;2024-03-07T06:28:01;52.90;;;26.73;;
66523;SDS011;53350;52.210;5.160;2024-03-07T06:30:34;50.88;;;28.48;;
66523;SDS011;53350;52.210;5.160;2024-03-07T06:33:02;49.33;;;27.77;;
66523;SDS011;53350;52.210;5.160;2024-03-07T06:35:29;46.05;;;25.00;;
66523;SDS011;53350;52.210;5.160;2024-03-07T06:37:57;53.15;;;28.73;;
66523;SDS011;53350;52.210;5.160;2024-03-07T06:40:23;39.92;;;20.35;;
66523;SDS011;53350;52.210;5.160;2024-03-07T06:42:50;53.88;;;27.65;;
66523;SDS011;53350;52.210;5.160;2024-03-07T06:45:17;44.85;;;24.35;;
66523;SDS011;53350;52.210;5.160;2024-03-07T06:47:44;47.63;;;28.40;;
66523;SDS011;53350;52.210;5.160;2024-03-07T06:50:12;48.67;;;28.10;;
66523;SDS011;53350;52.210;5.160;2024-03-07T06:55:08;46.95;;;24.58;;
66523;SDS011;53350;52.210;5.160;2024-03-07T06:57:36;37.10;;;21.40;;
66523;SDS011;53350;52.210;5.160;2024-03-07T07:00:02;49.30;;;25.48;;
66523;SDS011;53350;52.210;5.160;2024-03-07T07:02:36;33.38;;;17.70;;
66523;SDS011;53350;52.210;5.160;2024-03-07T07:05:03;40.50;;;23.80;;
66523;SDS011;53350;52.210;5.160;2024-03-07T07:07:32;35.95;;;20.58;;
66523;SDS011;53350;52.210;5.160;2024-03-07T07:12:28;40.88;;;20.02;;
66523;SDS011;53350;52.210;5.160;2024-03-07T07:14:54;34.85;;;19.77;;
66523;SDS011;53350;52.210;5.160;2024-03-07T07:17:21;40.92;;;26.50;;
66523;SDS011;53350;52.210;5.160;2024-03-07T07:19:49;31.88;;;17.30;;
66523;SDS011;53350;52.210;5.160;2024-03-07T07:22:15;38.53;;;21.08;;
66523;SDS011;53350;52.210;5.160;2024-03-07T07:24:43;34.77;;;20.90;;
66523;SDS011;53350;52.210;5.160;2024-03-07T07:27:09;39.83;;;22.23;;
66523;SDS011;53350;52.210;5.160;2024-03-07T07:29:37;34.30;;;20.40;;
66523;SDS011;53350;52.210;5.160;2024-03-07T07:32:04;37.90;;;21.45;;
66523;SDS011;53350;52.210;5.160;2024-03-07T07:34:31;26.30;;;13.98;;
66523;SDS011;53350;52.210;5.160;2024-03-07T07:36:57;41.92;;;22.00;;
66523;SDS011;53350;52.210;5.160;2024-03-07T07:39:24;36.90;;;23.17;;
66523;SDS011;53350;52.210;5.160;2024-03-07T07:41:50;39.47;;;23.30;;
66523;SDS011;53350;52.210;5.160;2024-03-07T07:44:17;24.60;;;14.57;;
66523;SDS011;53350;52.210;5.160;2024-03-07T07:46:45;33.08;;;18.45;;
66523;SDS011;53350;52.210;5.160;2024-03-07T07:49:12;27.13;;;15.40;;
66523;SDS011;53350;52.210;5.160;2024-03-07T07:51:39;32.15;;;16.10;;
66523;SDS011;53350;52.210;5.160;2024-03-07T07:54:05;37.00;;;19.63;;
66523;SDS011;53350;52.210;5.160;2024-03-07T07:56:32;31.92;;;18.25;;
66523;SDS011;53350;52.210;5.160;2024-03-07T07:58:58;38.63;;;20.80;;
66523;SDS011;53350;52.210;5.160;2024-03-07T08:01:24;32.60;;;19.63;;
66523;SDS011;53350;52.210;5.160;2024-03-07T08:03:53;34.30;;;22.48;;
66523;SDS011;53350;52.210;5.160;2024-03-07T08:06:20;33.95;;;20.67;;
66523;SDS011;53350;52.210;5.160;2024-03-07T08:08:46;31.35;;;19.45;;
66523;SDS011;53350;52.210;5.160;2024-03-07T08:11:13;31.40;;;20.38;;
66523;SDS011;53350;52.210;5.160;2024-03-07T08:13:40;28.27;;;19.30;;
66523;SDS011;53350;52.210;5.160;2024-03-07T08:16:06;30.52;;;19.33;;
66523;SDS011;53350;52.210;5.160;2024-03-07T08:18:33;33.83;;;20.33;;
66523;SDS011;53350;52.210;5.160;2024-03-07T08:21:01;31.38;;;19.35;;
66523;SDS011;53350;52.210;5.160;2024-03-07T08:23:29;32.17;;;18.08;;
66523;SDS011;53350;52.210;5.160;2024-03-07T08:25:56;31.98;;;17.02;;
66523;SDS011;53350;52.210;5.160;2024-03-07T08:28:23;30.75;;;19.70;;
66523;SDS011;53350;52.210;5.160;2024-03-07T08:30:49;22.00;;;13.43;;
66523;SDS011;53350;52.210;5.160;2024-03-07T08:33:16;32.13;;;18.83;;
66523;SDS011;53350;52.210;5.160;2024-03-07T08:35:46;21.30;;;11.55;;
66523;SDS011;53350;52.210;5.160;2024-03-07T08:38:16;30.52;;;17.83;;
66523;SDS011;53350;52.210;5.160;2024-03-07T08:40:42;23.20;;;15.10;;
66523;SDS011;53350;52.210;5.160;2024-03-07T08:43:09;30.10;;;16.52;;
66523;SDS011;53350;52.210;5.160;2024-03-07T08:45:35;28.27;;;17.95;;
66523;SDS011;53350;52.210;5.160;2024-03-07T08:48:02;24.45;;;14.55;;
66523;SDS011;53350;52.210;5.160;2024-03-07T08:50:30;28.15;;;17.13;;
66523;SDS011;53350;52.210;5.160;2024-03-07T08:52:59;20.60;;;13.43;;
66523;SDS011;53350;52.210;5.160;2024-03-07T08:55:27;22.13;;;13.48;;
66523;SDS011;53350;52.210;5.160;2024-03-07T08:57:53;28.00;;;16.92;;
66523;SDS011;53350;52.210;5.160;2024-03-07T09:00:20;26.55;;;16.48;;
66523;SDS011;53350;52.210;5.160;2024-03-07T09:05:17;19.35;;;12.75;;
66523;SDS011;53350;52.210;5.160;2024-03-07T09:07:44;26.35;;;14.93;;
66523;SDS011;53350;52.210;5.160;2024-03-07T09:10:12;19.77;;;12.80;;
66523;SDS011;53350;52.210;5.160;2024-03-07T09:12:41;29.00;;;15.65;;
66523;SDS011;53350;52.210;5.160;2024-03-07T09:15:08;24.05;;;14.23;;
66523;SDS011;53350;52.210;5.160;2024-03-07T09:17:36;21.75;;;14.20;;
66523;SDS011;53350;52.210;5.160;2024-03-07T09:20:03;25.70;;;16.42;;
66523;SDS011;53350;52.210;5.160;2024-03-07T09:22:31;23.03;;;14.60;;
66523;SDS011;53350;52.210;5.160;2024-03-07T09:24:57;21.20;;;13.45;;
66523;SDS011;53350;52.210;5.160;2024-03-07T09:27:24;27.10;;;14.57;;
66523;SDS011;53350;52.210;5.160;2024-03-07T09:29:52;23.65;;;14.05;;
66523;SDS011;53350;52.210;5.160;2024-03-07T09:32:19;22.00;;;13.43;;
66523;SDS011;53350;52.210;5.160;2024-03-07T09:34:47;22.97;;;15.50;;
66523;SDS011;53350;52.210;5.160;2024-03-07T09:37:14;18.98;;;13.65;;
66523;SDS011;53350;52.210;5.160;2024-03-07T09:39:41;17.85;;;10.43;;
66523;SDS011;53350;52.210;5.160;2024-03-07T09:42:07;15.85;;;10.23;;
66523;SDS011;53350;52.210;5.160;2024-03-07T09:44:34;20.27;;;13.13;;
66523;SDS011;53350;52.210;5.160;2024-03-07T09:47:06;15.18;;;9.38;;
66523;SDS011;53350;52.210;5.160;2024-03-07T09:49:33;19.35;;;13.30;;
66523;SDS011;53350;52.210;5.160;2024-03-07T09:52:00;12.55;;;7.40;;
66523;SDS011;53350;52.210;5.160;2024-03-07T09:54:33;12.70;;;6.55;;
66523;SDS011;53350;52.210;5.160;2024-03-07T09:57:00;22.85;;;8.48;;
66523;SDS011;53350;52.210;5.160;2024-03-07T09:59:30;19.08;;;10.75;;
66523;SDS011;53350;52.210;5.160;2024-03-07T10:02:00;14.50;;;8.80;;
66523;SDS011;53350;52.210;5.160;2024-03-07T10:04:36;16.95;;;10.10;;
66523;SDS011;53350;52.210;5.160;2024-03-07T10:07:06;16.15;;;9.52;;
66523;SDS011;53350;52.210;5.160;2024-03-07T10:09:36;14.57;;;8.48;;
66523;SDS011;53350;52.210;5.160;2024-03-07T10:12:05;14.32;;;9.20;;
66523;SDS011;53350;52.210;5.160;2024-03-07T10:14:34;17.13;;;10.50;;
66523;SDS011;53350;52.210;5.160;2024-03-07T10:17:02;15.33;;;9.33;;
66523;SDS011;53350;52.210;5.160;2024-03-07T10:19:29;13.38;;;7.22;;
66523;SDS011;53350;52.210;5.160;2024-03-07T10:21:58;16.40;;;8.45;;
66523;SDS011;53350;52.210;5.160;2024-03-07T10:24:26;14.63;;;8.88;;
66523;SDS011;53350;52.210;5.160;2024-03-07T10:26:53;14.98;;;9.07;;
66523;SDS011;53350;52.210;5.160;2024-03-07T10:29:23;14.10;;;7.90;;
66523;SDS011;53350;52.210;5.160;2024-03-07T10:31:50;18.05;;;11.52;;
66523;SDS011;53350;52.210;5.160;2024-03-07T10:34:16;15.70;;;9.05;;
66523;SDS011;53350;52.210;5.160;2024-03-07T10:36:43;21.13;;;9.70;;
66523;SDS011;53350;52.210;5.160;2024-03-07T10:39:11;18.55;;;11.52;;
66523;SDS011;53350;52.210;5.160;2024-03-07T10:41:45;15.23;;;9.38;;
66523;SDS011;53350;52.210;5.160;2024-03-07T10:44:15;17.80;;;9.90;;
66523;SDS011;53350;52.210;5.160;2024-03-07T10:46:46;19.77;;;12.32;;
66523;SDS011;53350;52.210;5.160;2024-03-07T10:49:18;21.15;;;11.32;;
66523;SDS011;53350;52.210;5.160;2024-03-07T10:51:48;21.73;;;12.32;;
66523;SDS011;53350;52.210;5.160;2024-03-07T10:57:06;16.33;;;10.43;;
66523;SDS011;53350;52.210;5.160;2024-03-07T10:59:42;15.18;;;9.00;;
66523;SDS011;53350;52.210;5.160;2024-03-07T11:02:17;16.73;;;8.85;;
66523;SDS011;53350;52.210;5.160;2024-03-07T11:04:53;19.95;;;12.23;;
66523;SDS011;53350;52.210;5.160;2024-03-07T11:07:22;20.23;;;11.65;;
66523;SDS011;53350;52.210;5.160;2024-03-07T11:09:50;18.40;;;11.27;;
66523;SDS011;53350;52.210;5.160;2024-03-07T11:12:21;20.73;;;11.75;;
66523;SDS011;53350;52.210;5.160;2024-03-07T11:14:50;16.60;;;9.82;;
66523;SDS011;53350;52.210;5.160;2024-03-07T11:17:18;15.98;;;8.93;;
66523;SDS011;53350;52.210;5.160;2024-03-07T11:19:46;19.35;;;10.40;;
66523;SDS011;53350;52.210;5.160;2024-03-07T11:22:28;18.48;;;11.63;;
66523;SDS011;53350;52.210;5.160;2024-03-07T11:25:05;17.67;;;9.68;;
66523;SDS011;53350;52.210;5.160;2024-03-07T11:27:33;20.70;;;9.32;;
66523;SDS011;53350;52.210;5.160;2024-03-07T11:30:06;16.02;;;9.48;;
66523;SDS011;53350;52.210;5.160;2024-03-07T11:32:34;17.17;;;11.77;;
66523;SDS011;53350;52.210;5.160;2024-03-07T11:35:03;19.63;;;12.70;;
66523;SDS011;53350;52.210;5.160;2024-03-07T11:37:39;15.27;;;7.93;;
66523;SDS011;53350;52.210;5.160;2024-03-07T11:40:11;18.75;;;10.85;;
66523;SDS011;53350;52.210;5.160;2024-03-07T11:42:43;21.90;;;12.13;;
66523;SDS011;53350;52.210;5.160;2024-03-07T11:47:49;20.73;;;10.70;;
66523;SDS011;53350;52.210;5.160;2024-03-07T11:52:45;18.67;;;10.05;;
66523;SDS011;53350;52.210;5.160;2024-03-07T11:55:13;19.75;;;11.75;;
66523;SDS011;53350;52.210;5.160;2024-03-07T12:00:09;19.83;;;12.07;;
66523;SDS011;53350;52.210;5.160;2024-03-07T12:02:37;28.75;;;12.07;;
66523;SDS011;53350;52.210;5.160;2024-03-07T12:05:04;20.83;;;10.57;;
66523;SDS011;53350;52.210;5.160;2024-03-07T12:07:31;20.73;;;13.57;;
66523;SDS011;53350;52.210;5.160;2024-03-07T12:09:58;21.63;;;11.57;;
66523;SDS011;53350;52.210;5.160;2024-03-07T12:12:30;18.50;;;11.60;;
66523;SDS011;53350;52.210;5.160;2024-03-07T12:14:58;20.13;;;13.57;;
66523;SDS011;53350;52.210;5.160;2024-03-07T12:17:25;17.40;;;9.30;;
66523;SDS011;53350;52.210;5.160;2024-03-07T12:19:51;23.60;;;11.45;;
66523;SDS011;53350;52.210;5.160;2024-03-07T12:22:18;16.15;;;9.02;;
66523;SDS011;53350;52.210;5.160;2024-03-07T12:24:48;17.10;;;10.65;;
66523;SDS011;53350;52.210;5.160;2024-03-07T12:27:27;18.95;;;11.13;;
66523;SDS011;53350;52.210;5.160;2024-03-07T12:29:55;19.50;;;10.93;;
66523;SDS011;53350;52.210;5.160;2024-03-07T12:32:22;17.23;;;10.35;;
66523;SDS011;53350;52.210;5.160;2024-03-07T12:34:49;20.88;;;12.13;;
66523;SDS011;53350;52.210;5.160;2024-03-07T12:39:48;21.67;;;11.57;;
66523;SDS011;53350;52.210;5.160;2024-03-07T12:42:26;18.33;;;11.20;;
66523;SDS011;53350;52.210;5.160;2024-03-07T12:44:57;24.92;;;11.45;;
66523;SDS011;53350;52.210;5.160;2024-03-07T12:49:51;19.50;;;12.10;;
66523;SDS011;53350;52.210;5.160;2024-03-07T12:52:17;19.40;;;12.43;;
66523;SDS011;53350;52.210;5.160;2024-03-07T12:54:44;17.65;;;10.80;;
66523;SDS011;53350;52.210;5.160;2024-03-07T12:57:12;22.40;;;12.88;;
66523;SDS011;53350;52.210;5.160;2024-03-07T12:59:38;20.25;;;12.18;;
66523;SDS011;53350;52.210;5.160;2024-03-07T13:02:07;18.60;;;11.20;;
66523;SDS011;53350;52.210;5.160;2024-03-07T13:04:34;18.73;;;10.57;;
66523;SDS011;53350;52.210;5.160;2024-03-07T13:07:02;21.90;;;11.52;;
66523;SDS011;53350;52.210;5.160;2024-03-07T13:09:29;20.27;;;10.65;;
66523;SDS011;53350;52.210;5.160;2024-03-07T13:11:56;16.88;;;9.25;;
66523;SDS011;53350;52.210;5.160;2024-03-07T13:14:25;16.55;;;9.77;;
66523;SDS011;53350;52.210;5.160;2024-03-07T13:16:54;17.30;;;10.90;;
66523;SDS011;53350;52.210;5.160;2024-03-07T13:19:22;19.58;;;9.25;;
66523;SDS011;53350;52.210;5.160;2024-03-07T13:21:50;16.90;;;8.23;;
66523;SDS011;53350;52.210;5.160;2024-03-07T13:24:18;14.20;;;8.70;;
66523;SDS011;53350;52.210;5.160;2024-03-07T13:26:45;19.83;;;11.30;;
66523;SDS011;53350;52.210;5.160;2024-03-07T13:29:13;18.98;;;11.50;;
66523;SDS011;53350;52.210;5.160;2024-03-07T13:31:40;15.43;;;9.52;;
66523;SDS011;53350;52.210;5.160;2024-03-07T13:34:07;19.85;;;11.43;;
66523;SDS011;53350;52.210;5.160;2024-03-07T13:36:39;15.55;;;8.80;;
66523;SDS011;53350;52.210;5.160;2024-03-07T13:39:06;17.55;;;7.90;;
66523;SDS011;53350;52.210;5.160;2024-03-07T13:41:36;14.40;;;8.32;;
66523;SDS011;53350;52.210;5.160;2024-03-07T13:44:02;15.50;;;8.40;;
66523;SDS011;53350;52.210;5.160;2024-03-07T13:46:29;16.25;;;9.68;;
66523;SDS011;53350;52.210;5.160;2024-03-07T13:51:32;15.73;;;10.02;;
66523;SDS011;53350;52.210;5.160;2024-03-07T13:54:01;18.92;;;10.55;;
66523;SDS011;53350;52.210;5.160;2024-03-07T13:56:51;19.27;;;11.52;;
66523;SDS011;53350;52.210;5.160;2024-03-07T14:05:39;16.38;;;10.63;;
66523;SDS011;53350;52.210;5.160;2024-03-07T14:11:45;17.60;;;11.18;;
66523;SDS011;53350;52.210;5.160;2024-03-07T14:14:44;21.52;;;12.00;;
66523;SDS011;53350;52.210;5.160;2024-03-07T14:17:52;14.93;;;9.57;;
66523;SDS011;53350;52.210;5.160;2024-03-07T14:20:47;15.40;;;9.80;;
66523;SDS011;53350;52.210;5.160;2024-03-07T14:23:30;14.52;;;8.77;;
66523;SDS011;53350;52.210;5.160;2024-03-07T14:26:34;16.77;;;11.30;;
66523;SDS011;53350;52.210;5.160;2024-03-07T14:29:16;18.25;;;10.38;;
66523;SDS011;53350;52.210;5.160;2024-03-07T14:31:53;19.17;;;11.90;;
66523;SDS011;53350;52.210;5.160;2024-03-07T14:34:24;21.58;;;12.90;;
66523;SDS011;53350;52.210;5.160;2024-03-07T14:37:04;18.98;;;11.13;;
66523;SDS011;53350;52.210;5.160;2024-03-07T14:39:43;16.42;;;8.98;;
66523;SDS011;53350;52.210;5.160;2024-03-07T14:42:13;18.10;;;11.00;;
66523;SDS011;53350;52.210;5.160;2024-03-07T14:44:42;16.25;;;9.65;;
66523;SDS011;53350;52.210;5.160;2024-03-07T14:47:11;17.23;;;10.23;;
66523;SDS011;53350;52.210;5.160;2024-03-07T14:49:39;14.13;;;9.05;;
66523;SDS011;53350;52.210;5.160;2024-03-07T14:52:07;18.20;;;10.25;;
66523;SDS011;53350;52.210;5.160;2024-03-07T14:54:35;15.40;;;10.02;;
66523;SDS011;53350;52.210;5.160;2024-03-07T14:57:02;17.13;;;9.82;;
66523;SDS011;53350;52.210;5.160;2024-03-07T14:59:31;16.30;;;10.95;;
66523;SDS011;53350;52.210;5.160;2024-03-07T15:01:58;13.98;;;8.88;;
66523;SDS011;53350;52.210;5.160;2024-03-07T15:04:24;13.30;;;7.60;;
66523;SDS011;53350;52.210;5.160;2024-03-07T15:06:52;12.18;;;7.70;;
66523;SDS011;53350;52.210;5.160;2024-03-07T15:09:22;14.25;;;8.80;;
66523;SDS011;53350;52.210;5.160;2024-03-07T15:11:48;15.38;;;9.98;;
66523;SDS011;53350;52.210;5.160;2024-03-07T15:14:15;14.68;;;9.05;;